Time,TemperatureF,DewpointF,PressureIn,WindDirection,WindDirectionDegrees,WindSpeedMPH,WindSpeedGustMPH,Humidity,HourlyPrecipIn,Conditions,Clouds,dailyrainin,SoftwareType,DateUTC
2013-04-26 00:02:00,51.0,39.0,-100.00,SSW,200,7.0,9.0,61,-99.99,,,-99.99,,2013-04-26 04:02:00,
2013-04-26 00:12:00,51.0,41.0,-100.00,South,190,4.0,4.0,69,-99.99,,,-99.99,,2013-04-26 04:12:00,
2013-04-26 00:22:00,51.0,41.0,-100.00,South,190,4.0,4.0,69,-99.99,,,-99.99,,2013-04-26 04:22:00,
2013-04-26 00:32:00,51.0,41.0,-100.00,South,190,4.0,4.0,69,-99.99,,,-99.99,,2013-04-26 04:32:00,
2013-04-26 00:42:00,51.0,41.0,-100.00,South,190,7.0,7.0,67,-99.99,,,-99.99,,2013-04-26 04:42:00,
2013-04-26 00:52:00,51.0,41.0,-100.00,South,190,7.0,7.0,67,-99.99,,,-99.99,,2013-04-26 04:52:00,
2013-04-26 01:02:00,51.0,41.0,-100.00,South,190,7.0,7.0,67,-99.99,,,-99.99,,2013-04-26 05:02:00,
2013-04-26 01:12:00,51.0,41.0,-100.00,South,190,4.0,4.0,69,-99.99,,,-99.99,,2013-04-26 05:12:00,
2013-04-26 01:22:00,51.0,41.0,-100.00,South,190,4.0,4.0,69,-99.99,,,-99.99,,2013-04-26 05:22:00,
2013-04-26 01:32:00,51.0,41.0,-100.00,South,190,4.0,4.0,69,-99.99,,,-99.99,,2013-04-26 05:32:00,
2013-04-26 01:41:00,51.0,41.0,-100.00,South,190,4.0,4.0,69,-99.99,,,-99.99,,2013-04-26 05:41:00,
2013-04-26 01:52:00,50.0,41.0,-100.00,SSW,200,4.0,4.0,71,-99.99,,,-99.99,,2013-04-26 05:52:00,
2013-04-26 02:01:00,50.0,41.0,-100.00,SSW,200,4.0,4.0,71,-99.99,,,-99.99,,2013-04-26 06:01:00,
2013-04-26 02:11:00,50.0,42.0,-100.00,SW,220,2.0,4.0,72,-99.99,,,-99.99,,2013-04-26 06:11:00,
2013-04-26 02:21:00,50.0,42.0,-100.00,SW,220,2.0,4.0,72,-99.99,,,-99.99,,2013-04-26 06:21:00,
2013-04-26 02:32:00,50.0,42.0,-100.00,SW,220,2.0,4.0,72,-99.99,,,-99.99,,2013-04-26 06:32:00,
2013-04-26 02:41:00,50.0,42.0,-100.00,SW,220,2.0,4.0,72,-99.99,,,-99.99,,2013-04-26 06:41:00,
2013-04-26 02:51:00,50.0,42.0,-100.00,SW,220,2.0,4.0,76,-99.99,,,-99.99,,2013-04-26 06:51:00,
2013-04-26 03:01:00,50.0,42.0,-100.00,SW,220,2.0,4.0,76,-99.99,,,-99.99,,2013-04-26 07:01:00,
2013-04-26 03:11:00,48.0,44.0,-100.00,North,360,4.0,7.0,84,-99.99,,,-99.99,,2013-04-26 07:11:00,
2013-04-26 03:21:00,48.0,44.0,-100.00,North,360,4.0,7.0,84,-99.99,,,-99.99,,2013-04-26 07:21:00,
2013-04-26 03:52:00,48.0,44.0,-100.00,NE,40,4.0,7.0,85,-99.99,,,-99.99,,2013-04-26 07:52:00,
2013-04-26 04:02:00,48.0,44.0,-100.00,NE,40,4.0,7.0,85,-99.99,,,-99.99,,2013-04-26 08:02:00,
2013-04-26 04:11:00,48.0,41.0,-100.00,NNE,20,4.0,7.0,77,-99.99,,,-99.99,,2013-04-26 08:11:00,
2013-04-26 04:21:00,48.0,41.0,-100.00,NNE,20,4.0,7.0,77,-99.99,,,-99.99,,2013-04-26 08:21:00,
2013-04-26 04:31:00,48.0,41.0,-100.00,NNE,20,4.0,7.0,77,-99.99,,,-99.99,,2013-04-26 08:31:00,
2013-04-26 04:42:00,48.0,41.0,-100.00,NNE,20,4.0,4.0,76,-99.99,,,-99.99,,2013-04-26 08:42:00,
2013-04-26 04:51:00,48.0,41.0,-100.00,NNE,20,4.0,4.0,76,-99.99,,,-99.99,,2013-04-26 08:51:00,
2013-04-26 05:01:00,48.0,41.0,-100.00,NNE,20,4.0,4.0,76,-99.99,,,-99.99,,2013-04-26 09:01:00,
2013-04-26 05:11:00,47.0,41.0,-100.00,North,10,4.0,4.0,80,-99.99,,,-99.99,,2013-04-26 09:11:00,
2013-04-26 05:21:00,47.0,41.0,-100.00,North,10,4.0,4.0,80,-99.99,,,-99.99,,2013-04-26 09:21:00,
2013-04-26 05:32:00,47.0,41.0,-100.00,North,10,4.0,4.0,80,-99.99,,,-99.99,,2013-04-26 09:32:00,
2013-04-26 05:42:00,47.0,41.0,-100.00,North,10,4.0,4.0,80,-99.99,,,-99.99,,2013-04-26 09:42:00,
2013-04-26 05:53:00,47.0,40.0,-100.00,North,350,4.0,4.0,78,-99.99,,,-99.99,,2013-04-26 09:53:00,
2013-04-26 06:02:00,47.0,40.0,-100.00,North,350,4.0,4.0,78,-99.99,,,-99.99,,2013-04-26 10:02:00,
2013-04-26 06:12:00,46.0,41.0,-100.00,NNW,330,4.0,7.0,80,-99.99,,,-99.99,,2013-04-26 10:12:00,
2013-04-26 06:22:00,46.0,41.0,-100.00,NNW,330,4.0,7.0,80,-99.99,,,-99.99,,2013-04-26 10:22:00,
2013-04-26 06:32:00,46.0,41.0,-100.00,NNW,330,4.0,7.0,80,-99.99,,,-99.99,,2013-04-26 10:32:00,
2013-04-26 06:41:00,46.0,41.0,-100.00,NNW,330,4.0,7.0,80,-99.99,,,-99.99,,2013-04-26 10:41:00,
2013-04-26 06:52:00,46.0,41.0,-100.00,NW,320,4.0,4.0,81,-99.99,,,-99.99,,2013-04-26 10:52:00,
2013-04-26 07:02:00,46.0,41.0,-100.00,NW,320,4.0,4.0,81,-99.99,,,-99.99,,2013-04-26 11:02:00,
2013-04-26 07:11:00,47.0,41.0,-100.00,NW,320,2.0,4.0,81,-99.99,,,-99.99,,2013-04-26 11:11:00,
2013-04-26 07:21:00,47.0,41.0,-100.00,NW,320,2.0,4.0,81,-99.99,,,-99.99,,2013-04-26 11:21:00,
2013-04-26 07:32:00,47.0,41.0,-100.00,NW,320,2.0,4.0,81,-99.99,,,-99.99,,2013-04-26 11:32:00,
2013-04-26 07:41:00,47.0,41.0,-100.00,NW,320,2.0,4.0,81,-99.99,,,-99.99,,2013-04-26 11:41:00,
2013-04-26 07:51:00,46.0,41.0,-100.00,NNW,330,4.0,7.0,81,-99.99,,,-99.99,,2013-04-26 11:51:00,
2013-04-26 08:01:00,46.0,41.0,-100.00,NNW,330,4.0,7.0,81,-99.99,,,-99.99,,2013-04-26 12:01:00,
2013-04-26 08:11:00,47.0,41.0,-100.00,NNW,330,2.0,4.0,80,-99.99,,,-99.99,,2013-04-26 12:11:00,
2013-04-26 08:21:00,47.0,41.0,-100.00,NNW,330,2.0,4.0,80,-99.99,,,-99.99,,2013-04-26 12:21:00,
2013-04-26 08:32:00,47.0,41.0,-100.00,NNW,330,2.0,4.0,80,-99.99,,,-99.99,,2013-04-26 12:32:00,
2013-04-26 08:41:00,48.0,41.0,-100.00,WNW,300,4.0,4.0,76,-99.99,,,-99.99,,2013-04-26 12:41:00,
2013-04-26 08:51:00,48.0,41.0,-100.00,WNW,300,4.0,4.0,76,-99.99,,,-99.99,,2013-04-26 12:51:00,
2013-04-26 09:01:00,48.0,41.0,-100.00,WNW,300,4.0,4.0,76,-99.99,,,-99.99,,2013-04-26 13:01:00,
2013-04-26 09:11:00,49.0,41.0,-100.00,West,270,2.0,4.0,75,-99.99,,,-99.99,,2013-04-26 13:11:00,
2013-04-26 09:21:00,49.0,41.0,-100.00,West,270,2.0,4.0,75,-99.99,,,-99.99,,2013-04-26 13:21:00,
2013-04-26 09:31:00,49.0,41.0,-100.00,West,270,2.0,4.0,75,-99.99,,,-99.99,,2013-04-26 13:31:00,
2013-04-26 09:41:00,49.0,41.0,-100.00,West,270,2.0,4.0,75,-99.99,,,-99.99,,2013-04-26 13:41:00,
2013-04-26 09:52:00,50.0,42.0,-100.00,SSW,200,2.0,4.0,72,-99.99,,,-99.99,,2013-04-26 13:52:00,
2013-04-26 10:21:00,51.0,42.0,-100.00,SE,140,2.0,4.0,70,-99.99,,,-99.99,,2013-04-26 14:21:00,
2013-04-26 10:41:00,51.0,39.0,-100.00,SE,140,4.0,7.0,64,-99.99,,,-99.99,,2013-04-26 14:41:00,
2013-04-26 10:51:00,51.0,39.0,-100.00,SE,140,4.0,7.0,64,-99.99,,,-99.99,,2013-04-26 14:51:00,
2013-04-26 11:01:00,51.0,39.0,-100.00,SE,140,4.0,7.0,64,-99.99,,,-99.99,,2013-04-26 15:01:00,
2013-04-26 11:11:00,52.0,41.0,-100.00,SE,140,4.0,4.0,65,-99.99,,,-99.99,,2013-04-26 15:11:00,
2013-04-26 11:21:00,52.0,41.0,-100.00,SE,140,4.0,4.0,65,-99.99,,,-99.99,,2013-04-26 15:21:00,
2013-04-26 11:33:00,52.0,41.0,-100.00,SE,140,4.0,4.0,65,-99.99,,,-99.99,,2013-04-26 15:33:00,
2013-04-26 11:52:00,54.0,41.0,-100.00,SW,220,2.0,7.0,60,-99.99,,,-99.99,,2013-04-26 15:52:00,
2013-04-26 12:03:00,54.0,41.0,-100.00,SW,220,2.0,7.0,60,-99.99,,,-99.99,,2013-04-26 16:03:00,
2013-04-26 12:12:00,55.0,38.0,-100.00,WNW,290,9.0,11.0,52,-99.99,,,-99.99,,2013-04-26 16:12:00,
2013-04-26 12:22:00,55.0,38.0,-100.00,WNW,290,9.0,11.0,52,-99.99,,,-99.99,,2013-04-26 16:22:00,
2013-04-26 12:32:00,55.0,38.0,-100.00,WNW,290,9.0,11.0,52,-99.99,,,-99.99,,2013-04-26 16:32:00,
2013-04-26 12:42:00,54.0,39.0,-100.00,WNW,290,7.0,7.0,56,-99.99,,,-99.99,,2013-04-26 16:42:00,
2013-04-26 12:52:00,54.0,39.0,-100.00,WNW,290,7.0,7.0,56,-99.99,,,-99.99,,2013-04-26 16:52:00,
2013-04-26 13:02:00,54.0,39.0,-100.00,WNW,290,7.0,7.0,56,-99.99,,,-99.99,,2013-04-26 17:02:00,
2013-04-26 13:11:00,55.0,39.0,-100.00,West,260,4.0,7.0,53,-99.99,,,-99.99,,2013-04-26 17:11:00,
2013-04-26 13:21:00,55.0,39.0,-100.00,West,260,4.0,7.0,53,-99.99,,,-99.99,,2013-04-26 17:21:00,
2013-04-26 13:31:00,55.0,39.0,-100.00,West,260,4.0,7.0,53,-99.99,,,-99.99,,2013-04-26 17:31:00,
2013-04-26 13:51:00,56.0,37.0,-100.00,SW,230,4.0,7.0,48,-99.99,,,-99.99,,2013-04-26 17:51:00,
2013-04-26 14:22:00,56.0,40.0,-100.00,SSW,200,7.0,9.0,54,-99.99,,,-99.99,,2013-04-26 18:22:00,
2013-04-26 14:33:00,56.0,40.0,-100.00,SSW,200,7.0,9.0,54,-99.99,,,-99.99,,2013-04-26 18:33:00,
2013-04-26 14:51:00,57.0,37.0,-100.00,SSE,150,4.0,4.0,46,-99.99,,,-99.99,,2013-04-26 18:51:00,
2013-04-26 15:01:00,57.0,37.0,-100.00,SSE,150,4.0,4.0,46,-99.99,,,-99.99,,2013-04-26 19:01:00,
2013-04-26 15:11:00,57.0,38.0,-100.00,South,170,7.0,7.0,48,-99.99,,,-99.99,,2013-04-26 19:11:00,
2013-04-26 15:21:00,57.0,38.0,-100.00,South,170,7.0,7.0,48,-99.99,,,-99.99,,2013-04-26 19:21:00,
2013-04-26 15:31:00,57.0,38.0,-100.00,South,170,7.0,7.0,48,-99.99,,,-99.99,,2013-04-26 19:31:00,
2013-04-26 15:52:00,58.0,37.0,-100.00,South,180,7.0,7.0,44,-99.99,,,-99.99,,2013-04-26 19:52:00,
2013-04-26 16:01:00,58.0,37.0,-100.00,South,180,7.0,7.0,44,-99.99,,,-99.99,,2013-04-26 20:01:00,
2013-04-26 16:11:00,58.0,40.0,-100.00,South,180,7.0,9.0,51,-99.99,,,-99.99,,2013-04-26 20:11:00,
2013-04-26 16:21:00,58.0,40.0,-100.00,South,180,7.0,9.0,51,-99.99,,,-99.99,,2013-04-26 20:21:00,
2013-04-26 16:32:00,58.0,40.0,-100.00,South,180,7.0,9.0,51,-99.99,,,-99.99,,2013-04-26 20:32:00,
2013-04-26 16:51:00,59.0,38.0,-100.00,South,180,7.0,9.0,45,-99.99,,,-99.99,,2013-04-26 20:51:00,
2013-04-26 17:11:00,59.0,37.0,-100.00,SSW,200,7.0,9.0,42,-99.99,,,-99.99,,2013-04-26 21:11:00,
2013-04-26 17:21:00,59.0,37.0,-100.00,SSW,200,7.0,9.0,42,-99.99,,,-99.99,,2013-04-26 21:21:00,
2013-04-26 17:32:00,59.0,37.0,-100.00,SSW,200,7.0,9.0,42,-99.99,,,-99.99,,2013-04-26 21:32:00,
2013-04-26 18:12:00,61.0,29.0,-100.00,SSW,200,7.0,7.0,29,-99.99,,,-99.99,,2013-04-26 22:12:00,
2013-04-26 18:22:00,61.0,29.0,-100.00,SSW,200,7.0,7.0,29,-99.99,,,-99.99,,2013-04-26 22:22:00,
2013-04-26 18:32:00,61.0,29.0,-100.00,SSW,200,7.0,7.0,29,-99.99,,,-99.99,,2013-04-26 22:32:00,
2013-04-26 18:41:00,61.0,30.0,-100.00,SSW,200,4.0,7.0,31,-99.99,,,-99.99,,2013-04-26 22:41:00,
2013-04-26 18:52:00,61.0,30.0,-100.00,SSW,200,4.0,7.0,31,-99.99,,,-99.99,,2013-04-26 22:52:00,
2013-04-26 19:01:00,61.0,30.0,-100.00,SSW,200,4.0,7.0,31,-99.99,,,-99.99,,2013-04-26 23:01:00,
2013-04-26 19:11:00,62.0,29.0,-100.00,South,180,4.0,4.0,29,-99.99,,,-99.99,,2013-04-26 23:11:00,
2013-04-26 19:21:00,62.0,29.0,-100.00,South,180,4.0,4.0,29,-99.99,,,-99.99,,2013-04-26 23:21:00,
2013-04-26 19:32:00,62.0,29.0,-100.00,South,180,4.0,4.0,29,-99.99,,,-99.99,,2013-04-26 23:32:00,
2013-04-26 19:41:00,60.0,30.0,-100.00,SSW,200,7.0,7.0,31,-99.99,,,-99.99,,2013-04-26 23:41:00,
2013-04-26 19:52:00,60.0,30.0,-100.00,SSW,200,7.0,7.0,31,-99.99,,,-99.99,,2013-04-26 23:52:00,
2013-04-26 20:01:00,60.0,30.0,-100.00,SSW,200,7.0,7.0,31,-99.99,,,-99.99,,2013-04-27 00:01:00,
2013-04-26 20:11:00,60.0,32.0,-100.00,South,170,4.0,4.0,34,-99.99,,,-99.99,,2013-04-27 00:11:00,
2013-04-26 20:21:00,60.0,32.0,-100.00,South,170,4.0,4.0,34,-99.99,,,-99.99,,2013-04-27 00:21:00,
2013-04-26 20:31:00,60.0,32.0,-100.00,South,170,4.0,4.0,34,-99.99,,,-99.99,,2013-04-27 00:31:00,
2013-04-26 20:41:00,60.0,32.0,-100.00,South,170,4.0,4.0,34,-99.99,,,-99.99,,2013-04-27 00:41:00,
2013-04-26 20:51:00,60.0,26.0,-100.00,South,170,4.0,7.0,27,-99.99,,,-99.99,,2013-04-27 00:51:00,
2013-04-26 21:01:00,60.0,26.0,-100.00,South,170,4.0,7.0,27,-99.99,,,-99.99,,2013-04-27 01:01:00,
2013-04-26 21:11:00,60.0,26.0,-100.00,South,170,4.0,7.0,27,-99.99,,,-99.99,,2013-04-27 01:11:00,
2013-04-26 23:42:00,55.0,39.0,-100.00,South,170,2.0,4.0,54,-99.99,,,-99.99,,2013-04-27 03:42:00,
2013-04-26 23:52:00,54.0,39.0,-100.00,East,80,2.0,7.0,57,-99.99,,,-99.99,,2013-04-27 03:52:00,